Archival Weather

Chicago O'Hare International

Chicago, Illinois (KORD)

Report from: Wednesday, September 6, 2023 10:34 AM CDT
Current time: Wednesday, May 29, 2024 7:43 PM CDT

Current weather – Weather history – Daily summaries
Weather forecast

Temperature23.9°C (75.0°F)
Dew point20.6°C (69.1°F)
Winds 6 kts (3.1 m/s, 6.9 mph) South (180°)
Visibility10 mi. (16.1 km)
Clouds Ceiling: Overcast 1,300 ft. (396 m)
Altimeter29.77 in.Hg (1008 mB)
Relative humidity82 %
Density altitude1,534 ft. (468 m)
Remarks Special weather observation
Automated weather observing station with precipitation discriminator
Flight conditions Marginal Visual Meteorological Conditions
Raw dataSPUS70 KWBC 061538 SPECI KORD 061534Z 18006KT 10SM OVC013 24/21 A2977 RMK AO2 T02390206
An error has occurred. This application may no longer respond until reloaded. Reload 🗙